createdAt,value
2018-12-07T00:00:08.990Z,93.34
2018-12-07T00:05:12.458Z,90.90
2018-12-07T00:10:15.849Z,88.23
2018-12-07T00:15:19.243Z,89.28
2018-12-07T00:20:22.842Z,91.63
2018-12-07T00:25:45.835Z,92.88
2018-12-07T00:30:49.246Z,95.88
2018-12-07T00:35:52.656Z,100.00
2018-12-07T00:40:56.061Z,100.00
2018-12-07T00:45:59.465Z,100.00
2018-12-07T00:51:02.904Z,100.00
2018-12-07T00:56:06.281Z,94.65
2018-12-07T01:01:09.688Z,79.84
2018-12-07T01:06:13.099Z,61.43
2018-12-07T01:11:24.132Z,52.04
2018-12-07T01:16:27.494Z,48.10
2018-12-07T01:21:30.908Z,43.84
2018-12-07T01:26:34.293Z,39.00
2018-12-07T01:31:37.672Z,40.97
2018-12-07T01:36:41.033Z,42.34
2018-12-07T01:41:44.432Z,41.33
2018-12-07T01:46:47.980Z,42.24
2018-12-07T01:51:51.372Z,54.37
2018-12-07T01:56:54.745Z,57.22
2018-12-07T02:01:58.192Z,57.43
2018-12-07T02:07:01.550Z,60.76
2018-12-07T02:12:05.155Z,70.00
2018-12-07T02:17:08.595Z,77.03
2018-12-07T02:22:11.911Z,77.94
2018-12-07T02:27:15.309Z,78.17
2018-12-07T02:37:27.429Z,89.60
2018-12-07T02:42:30.813Z,89.09
2018-12-07T02:47:34.191Z,88.18
2018-12-07T02:52:37.749Z,82.83
2018-12-07T02:57:41.102Z,72.05
2018-12-07T03:02:44.633Z,68.68
2018-12-07T03:07:48.004Z,64.77
2018-12-07T03:12:51.384Z,62.40
2018-12-07T03:17:54.895Z,56.26
2018-12-07T03:22:58.292Z,55.29
2018-12-07T03:28:01.644Z,53.37
2018-12-07T03:33:05.358Z,52.95
2018-12-07T03:38:08.705Z,49.27
2018-12-07T03:43:12.074Z,50.45
2018-12-07T03:48:15.497Z,50.64
2018-12-07T03:53:18.928Z,55.15
2018-12-07T03:58:22.331Z,55.12
2018-12-07T04:03:25.740Z,56.51
2018-12-07T04:08:29.106Z,56.56
2018-12-07T04:13:32.515Z,55.73
2018-12-07T04:18:35.875Z,58.81
2018-12-07T04:23:39.243Z,60.37
2018-12-07T04:28:42.594Z,61.88
2018-12-07T04:33:46.026Z,57.56
2018-12-07T04:38:49.433Z,57.60
2018-12-07T04:43:53.041Z,56.44
2018-12-07T04:48:56.742Z,57.92
2018-12-07T04:54:00.098Z,59.60
2018-12-07T05:04:12.815Z,53.26
2018-12-07T05:09:16.239Z,56.77
2018-12-07T05:14:19.770Z,56.73
2018-12-07T05:19:23.131Z,53.90
2018-12-07T05:24:26.483Z,59.59
2018-12-07T05:29:29.837Z,60.50
2018-12-07T05:34:33.228Z,56.91
2018-12-07T05:39:36.636Z,50.44
2018-12-07T05:44:40.032Z,47.01
2018-12-07T05:49:43.450Z,44.94
2018-12-07T05:54:46.958Z,47.27
2018-12-07T05:59:50.366Z,47.94
2018-12-07T06:04:53.834Z,51.99
2018-12-07T06:10:16.889Z,58.04
2018-12-07T06:15:32.216Z,55.00
2018-12-07T06:20:35.584Z,56.49
2018-12-07T06:25:38.969Z,56.68
2018-12-07T06:30:42.353Z,70.95
2018-12-07T06:35:45.724Z,77.85
2018-12-07T06:40:49.413Z,78.74
2018-12-07T06:45:52.720Z,83.65
2018-12-07T06:50:56.135Z,83.61
2018-12-07T06:55:59.621Z,88.71
2018-12-07T07:01:03.107Z,96.79
2018-12-07T07:06:06.544Z,99.55
2018-12-07T07:11:09.964Z,100.00
2018-12-07T07:16:13.505Z,100.00
2018-12-07T07:21:16.873Z,100.00
2018-12-07T07:26:20.304Z,100.00
2018-12-07T07:31:23.704Z,100.00
2018-12-07T07:36:27.106Z,100.00
2018-12-07T07:41:30.891Z,100.00
2018-12-07T07:46:34.312Z,100.00
2018-12-07T07:51:37.905Z,100.00
2018-12-07T07:56:41.309Z,100.00
2018-12-07T08:01:44.705Z,100.00
2018-12-07T08:06:48.075Z,100.00
2018-12-07T08:11:51.656Z,100.00
2018-12-07T08:16:55.121Z,100.00
2018-12-07T08:21:58.488Z,100.00
2018-12-07T08:27:01.844Z,100.00
2018-12-07T08:32:05.269Z,100.00
2018-12-07T08:37:08.669Z,100.00
2018-12-07T08:42:12.235Z,100.00
2018-12-07T08:47:15.606Z,100.00
2018-12-07T08:52:18.980Z,100.00
2018-12-07T08:57:22.388Z,100.00
2018-12-07T09:02:26.164Z,100.00
2018-12-07T09:07:29.567Z,100.00
2018-12-07T09:12:32.940Z,100.00
2018-12-07T09:22:45.575Z,100.00
2018-12-07T09:27:48.967Z,100.00
2018-12-07T09:32:52.373Z,100.00
2018-12-07T09:37:55.891Z,100.00
2018-12-07T09:42:59.280Z,100.00
2018-12-07T09:48:02.734Z,100.00
2018-12-07T09:53:06.252Z,100.00
2018-12-07T09:58:09.926Z,100.00
2018-12-07T10:03:13.308Z,100.00
2018-12-07T10:08:16.688Z,100.00
2018-12-07T10:13:20.102Z,100.00
2018-12-07T10:18:23.396Z,100.00
2018-12-07T10:23:26.726Z,100.00
2018-12-07T10:28:30.110Z,100.00
2018-12-07T10:33:33.624Z,100.00
2018-12-07T10:38:36.969Z,100.00
2018-12-07T10:43:40.349Z,100.00
2018-12-07T10:49:02.758Z,100.00
2018-12-07T10:54:06.186Z,100.00
2018-12-07T10:59:09.532Z,100.00
2018-12-07T11:04:31.966Z,100.00
2018-12-07T11:09:54.444Z,100.00
2018-12-07T11:15:16.883Z,100.00
2018-12-07T11:20:39.317Z,100.00
2018-12-07T11:26:01.814Z,100.00
2018-12-07T11:31:24.299Z,100.00
2018-12-07T11:36:27.750Z,100.00
2018-12-07T11:41:31.164Z,100.00
2018-12-07T11:46:34.541Z,100.00
2018-12-07T11:51:37.922Z,100.00
2018-12-07T11:56:41.305Z,100.00
2018-12-07T12:01:45.149Z,100.00
2018-12-07T12:06:48.108Z,100.00
2018-12-07T12:11:51.535Z,100.00
2018-12-07T12:16:54.911Z,100.00
2018-12-07T12:21:58.308Z,100.00
2018-12-07T12:27:01.880Z,100.00
2018-12-07T12:32:05.379Z,100.00
2018-12-07T12:37:08.835Z,100.00
2018-12-07T12:42:12.239Z,100.00
2018-12-07T12:47:15.655Z,100.00
2018-12-07T12:52:19.005Z,100.00
2018-12-07T12:57:22.392Z,100.00
2018-12-07T13:02:25.714Z,100.00
2018-12-07T13:07:29.069Z,100.00
2018-12-07T13:12:32.511Z,100.00
2018-12-07T13:17:35.860Z,100.00
2018-12-07T13:22:40.158Z,100.00
2018-12-07T13:27:44.120Z,99.10
2018-12-07T13:32:47.558Z,99.50
2018-12-07T13:37:51.010Z,98.89
2018-12-07T13:42:54.485Z,100.00
2018-12-07T13:47:57.884Z,97.17
2018-12-07T13:53:01.505Z,100.00
2018-12-07T13:58:04.978Z,98.37
2018-12-07T14:03:08.252Z,95.04
2018-12-07T14:08:31.735Z,97.54
2018-12-07T14:13:36.027Z,97.46
2018-12-07T14:29:34.250Z,95.20
2018-12-07T14:34:38.636Z,95.42
2018-12-07T14:39:43.563Z,94.50
2018-12-07T14:44:48.326Z,97.23
2018-12-07T14:49:54.935Z,97.13
2018-12-07T14:54:59.504Z,96.98
2018-12-07T15:00:06.873Z,99.65
2018-12-07T15:10:40.913Z,100.00
2018-12-07T15:15:45.867Z,99.69
2018-12-07T15:20:50.533Z,100.00
2018-12-07T15:26:14.102Z,100.00
2018-12-07T15:31:37.456Z,100.00
2018-12-07T15:36:41.618Z,100.00
2018-12-07T15:46:56.032Z,97.17
2018-12-07T15:52:19.874Z,97.44
2018-12-07T15:57:23.856Z,95.18
2018-12-07T16:02:28.518Z,92.67
2018-12-07T16:07:32.638Z,94.08
2018-12-07T16:12:36.743Z,93.91
2018-12-07T16:23:04.284Z,92.49
2018-12-07T16:28:09.189Z,91.26
2018-12-07T16:33:14.234Z,94.79
2018-12-07T16:38:37.623Z,98.38
2018-12-07T16:43:43.931Z,100.00
2018-12-07T16:49:05.416Z,99.00
2018-12-07T16:54:09.829Z,100.00
2018-12-07T16:59:14.283Z,100.00
2018-12-07T17:04:19.375Z,100.00
2018-12-07T17:09:24.109Z,100.00
2018-12-07T17:14:31.640Z,100.00
2018-12-07T17:19:35.834Z,100.00
2018-12-07T17:29:49.740Z,100.00
2018-12-07T17:34:52.939Z,100.00
2018-12-07T17:45:06.136Z,100.00
2018-12-07T17:50:09.639Z,100.00
2018-12-07T18:00:41.795Z,100.00
2018-12-07T18:05:45.271Z,100.00
2018-12-07T18:10:48.807Z,100.00
2018-12-07T18:15:51.964Z,100.00
2018-12-07T18:20:55.549Z,100.00
2018-12-07T18:25:58.877Z,100.00
2018-12-07T18:31:02.232Z,100.00
2018-12-07T18:36:05.763Z,100.00
2018-12-07T18:41:09.277Z,100.00
2018-12-07T18:46:12.480Z,100.00
2018-12-07T18:51:15.920Z,100.00
2018-12-07T18:56:19.682Z,100.00
2018-12-07T19:01:23.102Z,100.00
2018-12-07T19:06:26.691Z,100.00
2018-12-07T19:11:29.866Z,100.00
2018-12-07T19:16:33.437Z,100.00
2018-12-07T19:21:36.924Z,100.00
2018-12-07T19:26:40.278Z,100.00
2018-12-07T19:31:43.711Z,100.00
2018-12-07T19:36:47.299Z,100.00
2018-12-07T19:41:50.629Z,100.00
2018-12-07T19:46:54.078Z,100.00
2018-12-07T19:51:57.908Z,100.00
2018-12-07T19:57:02.425Z,100.00
2018-12-07T20:02:27.979Z,100.00
2018-12-07T20:07:31.588Z,100.00
2018-12-07T20:12:34.778Z,100.00
2018-12-07T20:17:38.227Z,100.00
2018-12-07T20:22:42.143Z,100.00
2018-12-07T20:27:45.407Z,100.00
2018-12-07T20:32:48.768Z,100.00
2018-12-07T20:37:52.968Z,100.00
2018-12-07T20:42:56.521Z,100.00
2018-12-07T20:47:59.880Z,100.00
2018-12-07T20:53:03.500Z,100.00
2018-12-07T20:58:07.150Z,100.00
2018-12-07T21:03:10.843Z,100.00
2018-12-07T21:09:01.520Z,100.00
2018-12-07T21:14:43.818Z,100.00
2018-12-07T21:20:26.197Z,99.65
2018-12-07T21:25:29.736Z,100.00
2018-12-07T21:30:57.946Z,100.00
2018-12-07T21:37:00.822Z,100.00
2018-12-07T21:42:18.301Z,100.00
2018-12-07T21:48:11.491Z,100.00
2018-12-07T21:53:15.411Z,100.00
2018-12-07T21:58:18.393Z,100.00
2018-12-07T22:03:21.875Z,100.00
2018-12-07T22:08:25.109Z,100.00
2018-12-07T22:13:28.499Z,100.00
2018-12-07T22:18:32.287Z,100.00
2018-12-07T22:23:54.805Z,100.00
2018-12-07T22:28:58.026Z,100.00
2018-12-07T22:34:01.402Z,100.00
2018-12-07T22:39:07.899Z,100.00
2018-12-07T22:44:11.228Z,100.00
2018-12-07T22:49:14.679Z,100.00
2018-12-07T22:59:28.243Z,100.00
2018-12-07T23:04:31.582Z,100.00
2018-12-07T23:09:34.969Z,100.00
2018-12-07T23:14:38.298Z,94.65
2018-12-07T23:19:41.678Z,91.61
2018-12-07T23:24:45.060Z,91.81
2018-12-07T23:29:48.431Z,92.73
2018-12-07T23:34:51.822Z,94.60
2018-12-07T23:39:55.160Z,97.06
2018-12-07T23:44:58.614Z,99.80
2018-12-07T23:50:02.008Z,100.00
2018-12-07T23:55:05.377Z,100.00
